富山空港の過去48時間の天気

富山空港 (Toyama)

現在時刻: 6/3 22:51 JST (6/3 13:51 UTC) 以下の時間は現地時間です。

過去48時間のMETAR気象情報
時間 風向 風速(m/s) 視程 気温(℃) 湿度(%) 気圧(hPa) 天気現象
3 21:00 不定 1 10km以上 21 73 1005
3 20:00 不定 1 10km以上 23 61 1005
3 19:00 2 10km以上 23 61 1005
3 18:00 3 10km以上 24 54 1004
3 17:00 北西 2 10km以上 25 50 1004
3 16:00 西北西 3 10km以上 25 50 1005
3 15:00 北西 4 10km以上 26 45 1005
3 14:00 西 5 10km以上 27 42 1005
3 13:00 北北西 3 10km以上 27 51 1004
3 12:00 北西 4 10km以上 28 45 1005
3 11:00 不定 2 10km以上 27 48 1005
3 10:00 北西 2 10km以上 25 54 1006
3 09:00 不定 1 10km以上 24 61 1006
3 08:00 2 10km以上 23 65 1006 周辺でしゅう雨
3 07:00 不定 1 10km以上 20 78 1006
3 06:10 不定 1 10km以上 20 78 1006
2 21:00 静穏 0 10km以上 22 78 1008
2 20:00 不定 1 10km以上 23 65 1007
2 19:00 西北西 2 10km以上 23 65 1007
2 18:00 北北西 3 10km以上 24 65 1007
2 17:00 西北西 3 10km以上 24 65 1007
2 16:00 西北西 3 10km以上 25 61 1006
2 15:00 北西 4 10km以上 26 58 1007
2 14:00 西北西 5 10km以上 26 54 1007
2 13:00 北西 5 10km以上 27 54 1007
2 12:00 北西 3 10km以上 26 58 1007
2 11:00 西 4 10km以上 26 54 1008
2 10:00 北北西 3 10km以上 25 57 1008
2 09:00 西 2 10km以上 23 78 1008
2 08:00 不定 1 10km以上 21 88 1009
2 07:00 西南西 2 10km以上 20 94 1009 弱いしゅう雨
RJNT 031200Z VRB02KT 9999 FEW040 SCT/// 21/16 Q1005
RJNT 031100Z VRB02KT 9999 FEW040 SCT/// 23/15 Q1005
RJNT 031000Z 01004KT 9999 FEW040 BKN/// 23/15 Q1005
RJNT 030900Z 01006KT 9999 FEW040 BKN/// 24/14 Q1004
RJNT 030800Z 32004KT 280V010 9999 FEW040 BKN/// 25/14 Q1004
RJNT 030700Z 30006KT 260V330 9999 FEW040 OVC/// 25/14 Q1005
RJNT 030600Z 32008KT 290V350 9999 FEW040 OVC/// 26/13 Q1005
RJNT 030500Z 28009KT 250V310 9999 FEW040 OVC/// 27/13 Q1005
RJNT 030400Z 33006KT 280V020 9999 FEW040 OVC/// 27/16 Q1004
RJNT 030300Z 31007KT 280V360 9999 FEW035 OVC/// 28/15 Q1005
RJNT 030200Z VRB03KT 9999 FEW035 OVC/// 27/15 Q1005
RJNT 030100Z 32004KT 290V020 9999 FEW030 SCT090 BKN/// 25/15 Q1006
RJNT 030000Z VRB02KT 9999 FEW030 SCT050 BKN130 24/16 Q1006
RJNT 022300Z 10003KT 050V180 9999 VCSH FEW035 SCT150 BKN/// 23/16 Q1006
RJNT 022200Z VRB02KT 9999 FEW030 SCT050 BKN/// 20/16 Q1006
RJNT 022110Z VRB01KT 9999 FEW030 BKN050 OVC/// 20/16 Q1006 RMK 1CU030 6SC050 A2972
RJNT 021200Z 00000KT 9999 FEW025 BKN180 BKN/// 22/18 Q1008
RJNT 021100Z VRB02KT 9999 FEW025 BKN050 BKN/// 23/16 Q1007
RJNT 021000Z 30003KT 250V340 9999 FEW025 BKN050 BKN070 23/16 Q1007
RJNT 020900Z 34005KT 290V020 9999 FEW025 BKN045 BKN/// 24/17 Q1007
RJNT 020800Z 29005KT 250V340 9999 FEW035 BKN050 BKN/// 24/17 Q1007
RJNT 020700Z 30006KT 250V360 9999 FEW035 SCT190 BKN/// 25/17 Q1006
RJNT 020600Z 31008KT 270V350 9999 FEW030 BKN/// 26/17 Q1007
RJNT 020500Z 30009KT 260V330 9999 FEW030 SCT035 BKN050 26/16 Q1007
RJNT 020400Z 31010KT 9999 FEW030 BKN035 27/17 Q1007
RJNT 020300Z 31006KT 260V020 9999 FEW025 SCT035 26/17 Q1007
RJNT 020200Z 28007KT 230V010 9999 FEW025 SCT035 26/16 Q1008
RJNT 020100Z 34005KT 270V020 9999 FEW025 25/16 Q1008
RJNT 020000Z 26003KT 190V320 9999 FEW020 BKN070 23/19 Q1008
RJNT 012300Z VRB02KT 9999 FEW005 BKN060 21/19 Q1009
RJNT 012200Z 25003KT 9999 -SHRA FEW003 SCT015 BKN050 20/19 Q1009